Time;durP1;ratioP1;P1;durP2;ratioP2;P2;SDS_P1;SDS_P2;PMS_P1;PMS_P2;Temp;Humidity;BMP_temperature;BMP_pressure;BME280_temperature;BME280_humidity;BME280_pressure;Samples;Min_cycle;Max_cycle;Signal;HPM_P1;HPM_P2
2022/08/24 00:01:02;;;;;;;9.02;3.60;;;;;;;;;;6116167;23;20192;-89
2022/08/24 00:04:07;;;;;;;7.28;3.45;;;;;;;;;;6116165;23;20226;-91
2022/08/24 00:07:14;;;;;;;6.35;4.00;;;;;;;;;;6117118;23;20186;-86
2022/08/24 00:10:21;;;;;;;4.97;3.80;;;;;;;;;;6119309;23;20157;-88
2022/08/24 00:13:28;;;;;;;9.63;4.07;;;;;;;;;;6118241;23;20265;-87
2022/08/24 00:16:35;;;;;;;6.43;3.50;;;;;;;;;;6118885;23;20174;-87
2022/08/24 00:19:40;;;;;;;5.97;3.13;;;;;;;;;;6135524;23;20303;-89
2022/08/24 00:22:45;;;;;;;4.78;3.22;;;;;;;;;;6116379;23;20216;-87
2022/08/24 00:25:52;;;;;;;7.28;3.30;;;;;;;;;;6134888;23;20156;-88
2022/08/24 00:28:57;;;;;;;5.25;3.38;;;;;;;;;;6118108;23;20217;-90
2022/08/24 00:32:02;;;;;;;6.43;3.55;;;;;;;;;;6115318;23;20169;-89
2022/08/24 00:35:08;;;;;;;4.80;3.47;;;;;;;;;;6115174;23;20173;-88
2022/08/24 00:38:13;;;;;;;8.32;3.97;;;;;;;;;;6118011;23;20177;-89
2022/08/24 00:41:19;;;;;;;6.95;4.18;;;;;;;;;;6115236;23;20766;-86
2022/08/24 00:44:25;;;;;;;10.40;4.10;;;;;;;;;;6112975;23;20241;-86
2022/08/24 00:47:32;;;;;;;8.55;4.70;;;;;;;;;;6114266;23;20161;-89
2022/08/24 00:50:39;;;;;;;6.55;3.78;;;;;;;;;;6115733;23;20690;-88
2022/08/24 00:53:47;;;;;;;5.30;3.63;;;;;;;;;;6115547;23;20212;-88
2022/08/24 00:56:56;;;;;;;14.32;3.95;;;;;;;;;;6114263;23;20669;-88
2022/08/24 01:00:02;;;;;;;8.88;3.65;;;;;;;;;;6114438;23;20193;-88
2022/08/24 01:03:09;;;;;;;8.70;4.47;;;;;;;;;;6114679;23;20177;-88
2022/08/24 01:06:14;;;;;;;8.70;4.35;;;;;;;;;;6114418;23;20625;-88
2022/08/24 01:09:19;;;;;;;9.10;5.30;;;;;;;;;;6114628;23;20217;-88
2022/08/24 01:12:27;;;;;;;7.82;4.85;;;;;;;;;;6114129;23;20185;-88
2022/08/24 01:15:34;;;;;;;11.18;5.90;;;;;;;;;;6114372;23;20168;-87
2022/08/24 01:18:50;;;;;;;17.23;8.85;;;;;;;;;;6114351;23;20201;-89
2022/08/24 01:22:02;;;;;;;23.02;9.23;;;;;;;;;;6114748;23;20177;-89
2022/08/24 01:25:09;;;;;;;13.68;8.32;;;;;;;;;;6114282;23;20280;-88
2022/08/24 01:28:17;;;;;;;17.92;9.75;;;;;;;;;;6114397;23;20192;-88
2022/08/24 01:31:22;;;;;;;22.48;11.95;;;;;;;;;;6115199;23;20169;-87
2022/08/24 01:34:28;;;;;;;23.98;12.52;;;;;;;;;;6115673;23;20173;-89
2022/08/24 01:37:33;;;;;;;23.65;12.30;;;;;;;;;;6114850;23;20629;-91
2022/08/24 01:40:41;;;;;;;24.50;14.13;;;;;;;;;;6114808;23;20200;-88
2022/08/24 01:43:46;;;;;;;25.67;14.50;;;;;;;;;;6114898;23;20558;-87
2022/08/24 01:46:55;;;;;;;29.13;15.15;;;;;;;;;;6115529;23;20173;-89
2022/08/24 01:50:02;;;;;;;30.52;16.25;;;;;;;;;;6114489;23;20165;-87
2022/08/24 01:53:08;;;;;;;33.78;17.45;;;;;;;;;;6114424;23;20197;-86
2022/08/24 01:56:14;;;;;;;37.55;16.52;;;;;;;;;;6114924;23;20177;-90
2022/08/24 01:59:21;;;;;;;33.70;17.15;;;;;;;;;;6115531;23;20633;-86
2022/08/24 02:02:28;;;;;;;38.38;16.75;;;;;;;;;;6113478;23;20169;-86
2022/08/24 02:05:33;;;;;;;31.02;16.70;;;;;;;;;;6114141;23;20169;-86
2022/08/24 02:08:39;;;;;;;29.65;15.93;;;;;;;;;;6114367;23;20488;-88
2022/08/24 02:11:45;;;;;;;32.90;17.23;;;;;;;;;;6114225;23;20170;-89
2022/08/24 02:14:51;;;;;;;31.33;17.35;;;;;;;;;;6113837;23;20169;-88
2022/08/24 02:17:57;;;;;;;34.95;17.23;;;;;;;;;;6114082;23;20178;-86
2022/08/24 02:21:03;;;;;;;31.80;16.48;;;;;;;;;;6114191;23;20193;-89
2022/08/24 02:24:09;;;;;;;33.00;15.80;;;;;;;;;;6113646;23;20173;-87
2022/08/24 02:27:16;;;;;;;28.05;14.93;;;;;;;;;;6114039;23;20221;-88
2022/08/24 02:30:20;;;;;;;28.35;15.02;;;;;;;;;;6114592;23;20173;-90
2022/08/24 02:33:25;;;;;;;29.98;15.75;;;;;;;;;;6112381;23;20174;-86
2022/08/24 02:36:31;;;;;;;26.90;14.50;;;;;;;;;;6113307;23;20173;-85
2022/08/24 02:39:37;;;;;;;27.33;14.32;;;;;;;;;;6114673;23;20181;-87
2022/08/24 02:42:46;;;;;;;27.73;13.77;;;;;;;;;;6114571;23;20173;-89
2022/08/24 02:46:28;;;;;;;26.80;14.30;;;;;;;;;;6113236;23;20169;-88
2022/08/24 02:49:36;;;;;;;30.42;14.18;;;;;;;;;;6113025;23;20206;-87
2022/08/24 02:52:42;;;;;;;33.00;14.75;;;;;;;;;;6113243;23;20198;-87
2022/08/24 02:55:47;;;;;;;31.73;14.48;;;;;;;;;;6113282;23;20181;-89
2022/08/24 02:58:55;;;;;;;27.70;13.88;;;;;;;;;;6112641;23;20169;-90
2022/08/24 03:02:00;;;;;;;32.17;14.20;;;;;;;;;;6113324;23;20193;-88
2022/08/24 03:05:06;;;;;;;22.10;12.50;;;;;;;;;;6113546;23;20318;-87
2022/08/24 03:08:12;;;;;;;29.30;14.32;;;;;;;;;;6112988;23;20238;-88
2022/08/24 03:11:17;;;;;;;34.17;14.77;;;;;;;;;;6115101;23;20173;-88
2022/08/24 03:14:24;;;;;;;31.20;14.18;;;;;;;;;;6114410;23;20546;-87
2022/08/24 03:17:30;;;;;;;26.05;14.43;;;;;;;;;;6115330;23;20173;-91
2022/08/24 03:20:35;;;;;;;27.70;13.50;;;;;;;;;;6114700;23;20217;-86
2022/08/24 03:23:40;;;;;;;29.90;14.45;;;;;;;;;;6113492;23;20196;-88
2022/08/24 03:26:45;;;;;;;28.00;14.23;;;;;;;;;;6132040;23;20626;-87
2022/08/24 03:29:52;;;;;;;29.40;15.05;;;;;;;;;;6115069;23;20173;-88
2022/08/24 03:32:57;;;;;;;29.67;14.05;;;;;;;;;;6114965;23;20173;-89
2022/08/24 03:36:02;;;;;;;35.53;14.88;;;;;;;;;;6114773;23;20173;-86
2022/08/24 03:39:08;;;;;;;30.08;14.68;;;;;;;;;;6113300;23;20293;-87
2022/08/24 03:42:13;;;;;;;37.28;14.43;;;;;;;;;;6114369;23;20313;-88
2022/08/24 03:45:20;;;;;;;30.48;14.35;;;;;;;;;;6117319;23;20238;-86
2022/08/24 03:48:25;;;;;;;29.27;13.82;;;;;;;;;;6114806;23;20304;-87
2022/08/24 03:51:30;;;;;;;37.53;14.30;;;;;;;;;;6114206;23;20290;-86
2022/08/24 03:54:36;;;;;;;45.90;15.23;;;;;;;;;;6114693;23;20170;-88
2022/08/24 03:57:41;;;;;;;32.85;14.18;;;;;;;;;;6113928;23;20323;-88
2022/08/24 04:00:49;;;;;;;37.20;15.50;;;;;;;;;;6114639;23;20205;-89
2022/08/24 04:03:55;;;;;;;47.88;15.57;;;;;;;;;;6114132;23;20173;-88
2022/08/24 04:07:06;;;;;;;67.10;16.17;;;;;;;;;;6114723;23;20236;-86
2022/08/24 04:10:12;;;;;;;37.90;15.80;;;;;;;;;;6132477;23;20248;-88
2022/08/24 04:13:18;;;;;;;38.45;16.70;;;;;;;;;;6113626;23;20173;-90
2022/08/24 04:16:23;;;;;;;43.85;15.95;;;;;;;;;;6114803;23;20165;-89
2022/08/24 04:19:36;;;;;;;54.35;16.35;;;;;;;;;;6114427;23;20205;-88
2022/08/24 04:22:42;;;;;;;35.33;15.43;;;;;;;;;;6114505;23;20185;-89
2022/08/24 04:25:48;;;;;;;56.45;16.75;;;;;;;;;;6115370;23;20505;-86
2022/08/24 04:28:54;;;;;;;35.08;16.08;;;;;;;;;;6116764;23;20252;-89
2022/08/24 04:31:59;;;;;;;36.63;16.52;;;;;;;;;;6116226;23;20173;-89
2022/08/24 04:35:07;;;;;;;32.70;15.98;;;;;;;;;;6116052;23;20299;-89
2022/08/24 04:38:12;;;;;;;29.45;15.25;;;;;;;;;;6116850;23;20224;-88
2022/08/24 04:41:29;;;;;;;31.23;14.95;;;;;;;;;;6116028;23;20305;-89
2022/08/24 04:44:34;;;;;;;28.83;15.80;;;;;;;;;;6116159;23;20189;-88
2022/08/24 04:47:40;;;;;;;34.72;15.38;;;;;;;;;;6116611;23;20185;-88
2022/08/24 04:50:46;;;;;;;30.67;15.35;;;;;;;;;;6119728;23;20269;-89
2022/08/24 04:53:51;;;;;;;35.75;16.00;;;;;;;;;;6116255;23;20193;-89
2022/08/24 04:56:57;;;;;;;32.95;16.20;;;;;;;;;;6117365;23;20257;-88
2022/08/24 05:00:02;;;;;;;26.60;13.90;;;;;;;;;;6118031;23;20169;-88
2022/08/24 05:03:07;;;;;;;20.80;11.02;;;;;;;;;;6117634;23;20170;-88
2022/08/24 05:06:18;;;;;;;20.65;10.95;;;;;;;;;;6117650;23;20181;-89
2022/08/24 05:09:24;;;;;;;21.58;11.75;;;;;;;;;;6118511;23;20173;-88
2022/08/24 05:12:30;;;;;;;20.58;10.57;;;;;;;;;;6117470;23;20173;-90
2022/08/24 05:15:42;;;;;;;22.63;11.55;;;;;;;;;;6118267;23;20190;-89
2022/08/24 05:18:47;;;;;;;22.00;11.38;;;;;;;;;;6118992;23;20625;-91
2022/08/24 05:21:56;;;;;;;17.45;10.18;;;;;;;;;;6117749;23;20268;-89
2022/08/24 05:25:01;;;;;;;18.27;10.85;;;;;;;;;;6116556;23;20308;-89
2022/08/24 05:28:06;;;;;;;23.63;11.57;;;;;;;;;;6116276;23;20185;-90
2022/08/24 05:31:13;;;;;;;25.63;14.10;;;;;;;;;;6116974;23;20173;-89
2022/08/24 05:34:18;;;;;;;22.90;12.85;;;;;;;;;;6117425;23;20681;-89
2022/08/24 05:37:25;;;;;;;23.50;13.57;;;;;;;;;;6119854;23;20178;-90
2022/08/24 05:40:43;;;;;;;22.88;11.95;;;;;;;;;;6118583;23;20173;-91
2022/08/24 05:43:48;;;;;;;23.02;12.65;;;;;;;;;;6117102;23;20173;-89
2022/08/24 05:47:09;;;;;;;23.75;12.88;;;;;;;;;;6118636;23;20624;-88
2022/08/24 05:50:14;;;;;;;33.67;13.07;;;;;;;;;;6118262;23;20177;-89
2022/08/24 05:53:21;;;;;;;23.40;12.55;;;;;;;;;;6116229;23;20280;-92
2022/08/24 05:56:27;;;;;;;23.95;12.25;;;;;;;;;;6117126;23;20216;-88
2022/08/24 05:59:33;;;;;;;24.42;12.80;;;;;;;;;;6115211;23;20172;-89
2022/08/24 06:02:42;;;;;;;24.80;13.35;;;;;;;;;;6117602;23;20192;-89
2022/08/24 06:05:49;;;;;;;25.83;12.65;;;;;;;;;;6117323;23;20185;-90
2022/08/24 06:08:57;;;;;;;22.70;12.13;;;;;;;;;;6118892;23;20177;-88
2022/08/24 06:12:03;;;;;;;21.65;12.02;;;;;;;;;;6118827;23;20177;-88
2022/08/24 06:15:10;;;;;;;23.77;12.82;;;;;;;;;;6119659;23;20173;-89
2022/08/24 06:18:15;;;;;;;23.27;11.75;;;;;;;;;;6117891;23;20162;-89
2022/08/24 06:21:23;;;;;;;19.33;11.85;;;;;;;;;;6117373;23;20197;-88
2022/08/24 06:27:55;;;;;;;19.55;10.50;;;;;;;;;;6115991;23;20166;-88
2022/08/24 06:31:04;;;;;;;15.95;9.88;;;;;;;;;;6114269;23;20181;-88
2022/08/24 06:34:10;;;;;;;19.83;10.80;;;;;;;;;;6118425;23;20160;-89
2022/08/24 06:37:15;;;;;;;20.75;11.15;;;;;;;;;;6117588;23;20241;-88
2022/08/24 06:40:23;;;;;;;20.48;10.43;;;;;;;;;;6116453;23;20177;-88
2022/08/24 06:43:28;;;;;;;17.17;10.15;;;;;;;;;;6117590;23;20676;-87
2022/08/24 06:46:38;;;;;;;18.08;10.10;;;;;;;;;;6115816;23;20178;-90
2022/08/24 06:49:44;;;;;;;15.18;9.68;;;;;;;;;;6116926;23;20153;-88
2022/08/24 06:52:49;;;;;;;15.95;9.23;;;;;;;;;;6117737;23;20192;-90
2022/08/24 06:55:56;;;;;;;14.65;8.27;;;;;;;;;;6116482;23;20168;-88
2022/08/24 06:59:03;;;;;;;18.38;8.50;;;;;;;;;;6116816;23;20718;-88
2022/08/24 07:02:11;;;;;;;12.57;8.38;;;;;;;;;;6117540;23;20248;-89
2022/08/24 07:05:17;;;;;;;13.13;8.85;;;;;;;;;;6118414;23;20244;-87
2022/08/24 07:08:35;;;;;;;13.32;8.52;;;;;;;;;;6138687;23;20201;-87
2022/08/24 07:11:42;;;;;;;13.55;8.23;;;;;;;;;;6117338;23;20176;-89
2022/08/24 07:14:49;;;;;;;20.73;8.93;;;;;;;;;;6117124;23;20181;-88
2022/08/24 07:17:56;;;;;;;15.60;8.95;;;;;;;;;;6115904;23;20166;-89
2022/08/24 07:21:02;;;;;;;14.80;8.65;;;;;;;;;;6115044;23;20157;-88
2022/08/24 07:24:18;;;;;;;13.98;8.23;;;;;;;;;;6115800;23;20234;-88
2022/08/24 07:27:25;;;;;;;13.93;8.10;;;;;;;;;;6115912;23;20218;-88
2022/08/24 07:30:30;;;;;;;12.05;7.28;;;;;;;;;;6116906;23;20169;-88
2022/08/24 07:33:36;;;;;;;11.77;7.57;;;;;;;;;;6116854;23;20286;-87
2022/08/24 07:40:01;;;;;;;10.88;6.90;;;;;;;;;;6121061;23;20503;-89
2022/08/24 07:43:11;;;;;;;11.77;6.68;;;;;;;;;;6117869;23;20197;-90
2022/08/24 07:46:16;;;;;;;13.40;7.00;;;;;;;;;;6116707;23;20169;-89
2022/08/24 07:49:21;;;;;;;12.07;6.82;;;;;;;;;;6114472;23;20185;-89
2022/08/24 07:52:26;;;;;;;11.38;6.88;;;;;;;;;;6115303;23;20185;-87
2022/08/24 07:55:32;;;;;;;8.95;6.55;;;;;;;;;;6118872;23;20189;-89
2022/08/24 07:58:38;;;;;;;9.85;6.70;;;;;;;;;;6117950;23;20201;-89
2022/08/24 08:01:43;;;;;;;7.93;5.68;;;;;;;;;;6117388;23;20201;-88
2022/08/24 08:04:50;;;;;;;9.60;6.03;;;;;;;;;;6133925;23;20253;-91
2022/08/24 08:07:57;;;;;;;8.25;5.65;;;;;;;;;;6117386;23;20500;-91
2022/08/24 08:11:02;;;;;;;9.35;5.60;;;;;;;;;;6116891;23;20194;-88
2022/08/24 08:14:09;;;;;;;10.65;5.07;;;;;;;;;;6117932;23;20617;-90
2022/08/24 08:17:15;;;;;;;8.77;5.20;;;;;;;;;;6118035;23;20224;-88
2022/08/24 08:20:23;;;;;;;8.13;5.00;;;;;;;;;;6116059;23;20180;-89
2022/08/24 08:26:56;;;;;;;10.95;5.07;;;;;;;;;;6118549;23;20189;-89
2022/08/24 08:30:06;;;;;;;6.68;4.15;;;;;;;;;;6117719;23;20531;-89
2022/08/24 08:33:14;;;;;;;5.25;4.30;;;;;;;;;;6118431;23;20173;-87
2022/08/24 08:36:21;;;;;;;7.20;4.93;;;;;;;;;;6117670;23;20172;-88
2022/08/24 08:39:28;;;;;;;4.65;3.90;;;;;;;;;;6117492;23;20249;-89
2022/08/24 08:42:53;;;;;;;5.15;3.47;;;;;;;;;;6117175;23;20271;-89
2022/08/24 08:46:11;;;;;;;4.95;3.58;;;;;;;;;;6116049;23;20248;-89
2022/08/24 08:49:52;;;;;;;4.55;3.40;;;;;;;;;;6133559;23;20189;-89
2022/08/24 08:53:29;;;;;;;3.95;3.45;;;;;;;;;;6118163;23;20229;-92
2022/08/24 08:56:36;;;;;;;4.30;3.03;;;;;;;;;;5977333;23;20358;-89
2022/08/24 08:59:50;;;;;;;4.35;2.85;;;;;;;;;;6117265;23;20297;-89
2022/08/24 09:03:17;;;;;;;3.35;2.30;;;;;;;;;;6117509;23;20180;-90
2022/08/24 09:06:50;;;;;;;3.92;2.65;;;;;;;;;;6117254;23;20177;-89
2022/08/24 09:10:11;;;;;;;3.28;2.13;;;;;;;;;;6118745;23;20293;-90
2022/08/24 09:13:25;;;;;;;2.47;2.20;;;;;;;;;;6118324;23;20200;-89
2022/08/24 09:16:40;;;;;;;2.30;1.92;;;;;;;;;;6119581;23;20172;-91
2022/08/24 09:19:56;;;;;;;2.58;2.08;;;;;;;;;;6118857;23;20168;-90
2022/08/24 09:23:08;;;;;;;4.10;2.17;;;;;;;;;;6118464;23;20293;-90
2022/08/24 09:26:19;;;;;;;2.78;2.25;;;;;;;;;;6120150;23;20168;-91
2022/08/24 09:29:40;;;;;;;4.40;1.95;;;;;;;;;;6119016;23;20300;-92
2022/08/24 09:33:06;;;;;;;3.13;2.22;;;;;;;;;;6119289;23;20242;-90
2022/08/24 09:36:14;;;;;;;4.35;2.72;;;;;;;;;;6119036;23;20176;-89
2022/08/24 09:39:31;;;;;;;4.00;2.00;;;;;;;;;;6119724;23;20184;-90
2022/08/24 09:42:55;;;;;;;2.50;2.30;;;;;;;;;;6119106;23;20544;-92
2022/08/24 09:46:13;;;;;;;3.10;2.40;;;;;;;;;;6118939;23;20184;-91
2022/08/24 09:49:35;;;;;;;2.95;2.40;;;;;;;;;;6120462;23;20172;-89
2022/08/24 09:53:01;;;;;;;2.67;2.42;;;;;;;;;;6118877;23;20291;-88
2022/08/24 09:56:17;;;;;;;8.70;3.47;;;;;;;;;;6116755;23;20193;-89
2022/08/24 09:59:33;;;;;;;3.47;2.50;;;;;;;;;;6117912;23;20181;-89
2022/08/24 10:02:57;;;;;;;4.93;2.10;;;;;;;;;;6118607;23;20261;-90
2022/08/24 10:06:15;;;;;;;4.30;2.42;;;;;;;;;;6120861;23;20829;-89
2022/08/24 10:09:32;;;;;;;3.55;2.67;;;;;;;;;;6121164;23;20608;-88
2022/08/24 10:12:48;;;;;;;3.10;2.05;;;;;;;;;;6119310;23;20168;-89
2022/08/24 10:15:59;;;;;;;4.47;2.40;;;;;;;;;;6119597;23;20171;-89
2022/08/24 10:19:12;;;;;;;4.38;2.28;;;;;;;;;;6119862;23;20170;-91
2022/08/24 10:22:24;;;;;;;3.95;2.53;;;;;;;;;;6115308;23;20193;-87
2022/08/24 10:25:32;;;;;;;3.35;2.30;;;;;;;;;;6115874;23;20189;-89
2022/08/24 10:28:45;;;;;;;3.92;2.30;;;;;;;;;;6123245;23;20181;-88
2022/08/24 10:31:58;;;;;;;4.05;2.40;;;;;;;;;;6118707;23;20188;-90
2022/08/24 10:35:05;;;;;;;3.67;2.78;;;;;;;;;;6120573;23;20559;-88
2022/08/24 10:42:11;;;;;;;15.15;3.20;;;;;;;;;;6119219;23;20520;-89
2022/08/24 10:45:30;;;;;;;3.30;2.30;;;;;;;;;;6118939;23;20177;-90
2022/08/24 10:48:53;;;;;;;3.20;2.20;;;;;;;;;;6117353;23;20172;-90
2022/08/24 10:52:14;;;;;;;3.95;2.33;;;;;;;;;;6116619;23;20177;-90
2022/08/24 10:55:50;;;;;;;3.47;2.58;;;;;;;;;;6118364;23;20180;-89
2022/08/24 10:59:02;;;;;;;4.18;2.15;;;;;;;;;;6116448;23;20220;-91
2022/08/24 11:02:10;;;;;;;2.95;2.05;;;;;;;;;;6117360;23;20212;-88
2022/08/24 11:05:16;;;;;;;5.60;2.42;;;;;;;;;;6117471;23;20188;-88
2022/08/24 11:08:23;;;;;;;2.92;2.00;;;;;;;;;;6115811;23;20204;-90
2022/08/24 11:11:32;;;;;;;4.30;2.17;;;;;;;;;;6116877;23;20172;-89
2022/08/24 11:14:39;;;;;;;5.30;2.22;;;;;;;;;;6117790;23;20502;-91
2022/08/24 11:17:55;;;;;;;6.32;2.42;;;;;;;;;;6115284;23;20197;-87
2022/08/24 11:21:01;;;;;;;3.42;2.53;;;;;;;;;;6117135;23;20164;-90
2022/08/24 11:24:09;;;;;;;5.22;2.40;;;;;;;;;;6116642;23;20196;-90
2022/08/24 11:27:20;;;;;;;2.90;2.22;;;;;;;;;;6118301;23;20176;-90
2022/08/24 11:30:27;;;;;;;2.88;2.25;;;;;;;;;;6115960;23;20174;-90
2022/08/24 11:33:34;;;;;;;6.35;2.33;;;;;;;;;;6116382;23;20185;-88
2022/08/24 11:36:41;;;;;;;4.22;2.60;;;;;;;;;;6123130;23;20181;-89
2022/08/24 11:39:51;;;;;;;3.75;2.80;;;;;;;;;;6120073;23;20212;-89
2022/08/24 11:43:25;;;;;;;5.45;2.70;;;;;;;;;;6120130;23;20193;-90
2022/08/24 11:46:33;;;;;;;5.15;2.85;;;;;;;;;;6082705;23;20191;-88
2022/08/24 11:49:43;;;;;;;3.70;2.50;;;;;;;;;;6118679;23;20184;-89
2022/08/24 11:52:57;;;;;;;3.67;2.63;;;;;;;;;;6117836;23;20200;-90
2022/08/24 11:56:05;;;;;;;4.15;2.50;;;;;;;;;;6119496;23;20268;-88
2022/08/24 11:59:15;;;;;;;5.68;4.05;;;;;;;;;;6122337;23;20186;-89
2022/08/24 12:02:25;;;;;;;4.47;3.20;;;;;;;;;;6118799;23;20193;-89
2022/08/24 12:05:36;;;;;;;4.57;3.20;;;;;;;;;;6119383;23;20177;-88
2022/08/24 12:08:44;;;;;;;4.38;2.97;;;;;;;;;;6119993;23;20177;-90
2022/08/24 12:11:58;;;;;;;5.15;2.90;;;;;;;;;;6120556;23;20182;-88
2022/08/24 12:15:06;;;;;;;4.70;3.15;;;;;;;;;;6118134;23;20209;-87
2022/08/24 12:18:16;;;;;;;3.83;2.90;;;;;;;;;;6116150;23;20217;-88
2022/08/24 12:21:25;;;;;;;3.30;2.85;;;;;;;;;;6117967;23;20177;-89
2022/08/24 12:24:34;;;;;;;3.38;2.90;;;;;;;;;;6118328;23;20201;-90
2022/08/24 12:27:41;;;;;;;3.88;2.85;;;;;;;;;;6140096;23;20177;-90
2022/08/24 12:30:46;;;;;;;6.35;2.85;;;;;;;;;;6119389;23;20168;-89
2022/08/24 12:33:53;;;;;;;4.15;2.92;;;;;;;;;;6115102;23;20168;-89
2022/08/24 12:37:07;;;;;;;3.35;2.80;;;;;;;;;;6119639;23;20310;-90
2022/08/24 12:40:18;;;;;;;4.30;2.92;;;;;;;;;;6119202;23;20197;-91
2022/08/24 12:43:26;;;;;;;3.35;2.72;;;;;;;;;;6117786;23;20201;-89
2022/08/24 12:50:56;;;;;;;3.10;2.60;;;;;;;;;;6139313;23;20189;-90
2022/08/24 12:54:12;;;;;;;4.25;3.10;;;;;;;;;;6119146;23;20232;-91
2022/08/24 12:57:31;;;;;;;4.80;2.97;;;;;;;;;;6119729;23;20177;-90
2022/08/24 13:00:38;;;;;;;3.30;2.50;;;;;;;;;;6118937;23;20172;-90
2022/08/24 13:03:45;;;;;;;4.38;2.70;;;;;;;;;;6119625;23;20196;-91
2022/08/24 13:07:01;;;;;;;5.95;3.15;;;;;;;;;;6122723;23;20213;-90
2022/08/24 13:10:12;;;;;;;4.28;2.65;;;;;;;;;;6120777;23;20172;-90
2022/08/24 13:13:22;;;;;;;4.05;3.00;;;;;;;;;;6121910;23;20171;-91
2022/08/24 13:16:46;;;;;;;4.32;3.10;;;;;;;;;;6118160;23;20181;-90
2022/08/24 13:20:12;;;;;;;4.10;3.25;;;;;;;;;;6121671;23;20288;-92
2022/08/24 13:23:20;;;;;;;4.65;3.58;;;;;;;;;;6118002;23;20196;-88
2022/08/24 13:26:26;;;;;;;5.90;4.43;;;;;;;;;;6118443;23;20161;-88
2022/08/24 14:51:47;;;;;;;4.30;2.92;;;;;;;;;;6132309;23;20220;-88
2022/08/24 14:55:02;;;;;;;4.55;2.90;;;;;;;;;;6123834;23;20208;-88
2022/08/24 14:58:12;;;;;;;4.95;2.97;;;;;;;;;;6122101;23;20261;-90
2022/08/24 15:01:32;;;;;;;8.02;3.25;;;;;;;;;;6122543;23;20177;-89
2022/08/24 15:04:40;;;;;;;5.72;3.10;;;;;;;;;;6120929;23;20200;-89
2022/08/24 15:07:54;;;;;;;3.85;3.10;;;;;;;;;;6122470;23;20169;-88
2022/08/24 15:11:03;;;;;;;5.68;3.40;;;;;;;;;;6121342;23;20177;-88
2022/08/24 15:14:10;;;;;;;4.88;3.20;;;;;;;;;;6125605;23;20177;-88
2022/08/24 15:17:18;;;;;;;7.60;3.70;;;;;;;;;;6121776;23;20625;-89
2022/08/24 15:20:32;;;;;;;6.22;3.67;;;;;;;;;;6122337;23;20258;-90
2022/08/24 15:23:48;;;;;;;6.43;3.30;;;;;;;;;;6118177;23;20213;-90
2022/08/24 15:26:59;;;;;;;6.40;3.70;;;;;;;;;;6118446;23;20252;-89
2022/08/24 15:30:07;;;;;;;6.50;3.63;;;;;;;;;;6123743;23;20164;-89
2022/08/24 15:33:14;;;;;;;6.55;3.63;;;;;;;;;;6119098;23;20169;-91
2022/08/24 15:36:19;;;;;;;6.15;3.47;;;;;;;;;;6119044;23;20661;-90
2022/08/24 15:39:27;;;;;;;5.00;3.25;;;;;;;;;;6119247;23;20297;-90
2022/08/24 15:42:35;;;;;;;5.03;3.20;;;;;;;;;;6119881;23;20172;-89
2022/08/24 15:45:45;;;;;;;6.35;3.67;;;;;;;;;;6122904;23;20557;-90
2022/08/24 15:48:51;;;;;;;4.65;3.13;;;;;;;;;;6119532;23;20176;-89
2022/08/24 15:51:58;;;;;;;6.88;3.75;;;;;;;;;;6121453;23;20206;-90
2022/08/24 15:55:06;;;;;;;8.05;4.13;;;;;;;;;;6120659;23;20165;-90
2022/08/24 15:58:25;;;;;;;7.07;3.58;;;;;;;;;;6120981;23;20154;-89
2022/08/24 16:05:01;;;;;;;4.68;3.55;;;;;;;;;;6121739;23;20213;-89
2022/08/24 16:08:12;;;;;;;7.80;3.42;;;;;;;;;;6122237;23;20173;-89
2022/08/24 16:11:26;;;;;;;7.05;3.75;;;;;;;;;;6121744;23;20700;-91
2022/08/24 16:14:33;;;;;;;4.75;3.55;;;;;;;;;;6121931;23;20248;-89
2022/08/24 16:17:40;;;;;;;8.27;3.78;;;;;;;;;;6120454;23;20177;-89
2022/08/24 16:20:45;;;;;;;6.72;3.75;;;;;;;;;;6119470;23;20176;-90
2022/08/24 16:23:54;;;;;;;6.55;3.83;;;;;;;;;;6120278;23;20188;-90
2022/08/24 16:27:03;;;;;;;8.82;3.75;;;;;;;;;;6122603;23;20156;-88
2022/08/24 16:30:22;;;;;;;8.63;4.22;;;;;;;;;;6122610;23;20217;-89
2022/08/24 16:33:39;;;;;;;6.25;3.65;;;;;;;;;;6120906;23;20169;-91
2022/08/24 16:36:44;;;;;;;8.27;4.18;;;;;;;;;;6118274;23;20182;-91
2022/08/24 16:39:50;;;;;;;8.68;4.30;;;;;;;;;;6123390;23;20198;-90
2022/08/24 16:46:29;;;;;;;7.60;3.58;;;;;;;;;;6123841;23;20173;-91
2022/08/24 16:49:35;;;;;;;6.50;4.18;;;;;;;;;;6121342;23;20261;-91
2022/08/24 16:52:40;;;;;;;6.38;4.03;;;;;;;;;;6119602;23;20164;-90
2022/08/24 16:55:47;;;;;;;5.55;3.47;;;;;;;;;;6116285;23;20177;-90
2022/08/24 16:58:53;;;;;;;7.80;3.75;;;;;;;;;;6117776;23;20263;-89
2022/08/24 17:01:59;;;;;;;8.13;4.93;;;;;;;;;;6117843;23;20173;-90
2022/08/24 17:05:04;;;;;;;6.15;3.58;;;;;;;;;;6117697;23;20193;-91
2022/08/24 17:08:11;;;;;;;8.52;3.30;;;;;;;;;;6118754;23;20173;-91
2022/08/24 17:11:16;;;;;;;7.95;4.20;;;;;;;;;;6118526;23;20250;-91
2022/08/24 17:14:23;;;;;;;11.05;6.30;;;;;;;;;;6116958;23;20169;-89
2022/08/24 17:17:28;;;;;;;5.80;3.55;;;;;;;;;;6118677;23;20173;-92
2022/08/24 17:20:33;;;;;;;6.75;4.07;;;;;;;;;;6116493;23;20516;-88
2022/08/24 17:23:40;;;;;;;5.85;3.75;;;;;;;;;;6116560;23;20196;-89
2022/08/24 17:26:45;;;;;;;9.98;4.90;;;;;;;;;;6117313;23;20181;-90
2022/08/24 17:29:51;;;;;;;8.43;3.95;;;;;;;;;;6117987;23;20220;-91
2022/08/24 17:32:57;;;;;;;7.00;3.85;;;;;;;;;;6118009;23;20213;-90
2022/08/24 17:36:04;;;;;;;6.78;4.07;;;;;;;;;;6118812;23;20164;-88
2022/08/24 17:39:10;;;;;;;9.40;3.72;;;;;;;;;;6117976;23;20172;-90
2022/08/24 17:42:15;;;;;;;8.50;3.70;;;;;;;;;;6118464;23;20168;-90
2022/08/24 17:45:22;;;;;;;7.28;4.57;;;;;;;;;;6119596;23;20192;-90
2022/08/24 17:48:27;;;;;;;7.38;4.07;;;;;;;;;;6119359;23;20252;-89
2022/08/24 17:51:32;;;;;;;12.80;4.00;;;;;;;;;;6119016;23;20200;-90
2022/08/24 17:54:37;;;;;;;8.00;3.80;;;;;;;;;;6118633;23;20249;-89
2022/08/24 17:57:43;;;;;;;5.88;3.92;;;;;;;;;;6119916;23;20169;-89
2022/08/24 18:00:53;;;;;;;8.02;4.50;;;;;;;;;;6119459;23;20189;-89
2022/08/24 18:03:58;;;;;;;7.15;4.50;;;;;;;;;;6117702;23;20192;-88
2022/08/24 18:07:12;;;;;;;7.05;4.53;;;;;;;;;;6120878;23;20169;-89
2022/08/24 18:10:19;;;;;;;8.18;4.95;;;;;;;;;;6119950;23;20170;-88
2022/08/24 18:13:24;;;;;;;12.13;5.47;;;;;;;;;;6118505;23;20173;-89
2022/08/24 18:16:31;;;;;;;9.80;5.20;;;;;;;;;;6119246;23;20200;-88
2022/08/24 18:19:37;;;;;;;8.02;4.43;;;;;;;;;;6117175;23;20245;-87
2022/08/24 18:22:45;;;;;;;6.68;4.68;;;;;;;;;;6117821;23;20177;-89
2022/08/24 18:25:52;;;;;;;8.77;4.30;;;;;;;;;;6116926;23;20197;-89
2022/08/24 18:28:59;;;;;;;8.27;4.22;;;;;;;;;;6117162;23;20730;-88
2022/08/24 18:32:06;;;;;;;9.48;4.82;;;;;;;;;;6117774;23;20309;-88
2022/08/24 18:35:11;;;;;;;8.45;4.60;;;;;;;;;;6119235;23;20188;-88
2022/08/24 18:38:16;;;;;;;9.15;4.63;;;;;;;;;;6119922;23;20229;-89
2022/08/24 18:41:26;;;;;;;9.43;4.80;;;;;;;;;;6117152;23;20181;-89
2022/08/24 18:44:31;;;;;;;11.38;4.80;;;;;;;;;;6121205;23;20237;-87
2022/08/24 18:47:37;;;;;;;9.93;4.82;;;;;;;;;;6138862;23;20174;-90
2022/08/24 18:50:42;;;;;;;8.68;5.53;;;;;;;;;;6122120;23;20209;-90
2022/08/24 18:53:48;;;;;;;7.78;4.78;;;;;;;;;;6119163;23;20181;-87
2022/08/24 18:56:53;;;;;;;7.30;4.53;;;;;;;;;;6121446;23;20160;-90
2022/08/24 18:59:58;;;;;;;12.65;5.95;;;;;;;;;;6118594;23;20169;-87
2022/08/24 19:03:06;;;;;;;9.07;5.50;;;;;;;;;;6120512;23;20157;-88
2022/08/24 19:06:11;;;;;;;9.85;5.60;;;;;;;;;;6120482;23;20173;-88
2022/08/24 19:09:16;;;;;;;9.10;5.32;;;;;;;;;;6116885;23;20626;-88
2022/08/24 19:12:21;;;;;;;8.15;4.95;;;;;;;;;;6120745;23;20170;-88
2022/08/24 19:15:27;;;;;;;8.07;5.30;;;;;;;;;;6119261;23;20209;-86
2022/08/24 19:18:34;;;;;;;10.00;5.43;;;;;;;;;;6120596;23;20168;-88
2022/08/24 19:21:40;;;;;;;10.88;5.65;;;;;;;;;;6120349;23;20165;-89
2022/08/24 19:24:46;;;;;;;9.45;5.68;;;;;;;;;;6120357;23;20287;-88
2022/08/24 19:27:53;;;;;;;9.50;5.45;;;;;;;;;;6121242;23;20230;-89
2022/08/24 19:31:02;;;;;;;11.23;5.68;;;;;;;;;;6124681;23;20161;-88
2022/08/24 19:34:08;;;;;;;11.38;6.25;;;;;;;;;;6121330;23;20239;-88
2022/08/24 19:37:14;;;;;;;9.07;6.10;;;;;;;;;;6126035;23;20238;-90
2022/08/24 19:40:21;;;;;;;10.48;6.30;;;;;;;;;;6125785;23;20172;-88
2022/08/24 19:43:29;;;;;;;12.45;6.00;;;;;;;;;;6124456;23;20205;-89
2022/08/24 19:47:00;;;;;;;13.77;6.78;;;;;;;;;;6124080;23;20193;-87
2022/08/24 19:50:08;;;;;;;11.07;6.25;;;;;;;;;;6123894;23;20197;-89
2022/08/24 19:53:13;;;;;;;14.25;6.53;;;;;;;;;;6124594;23;20225;-88
2022/08/24 19:56:19;;;;;;;11.35;6.28;;;;;;;;;;6125790;23;20169;-88
2022/08/24 19:59:37;;;;;;;13.70;6.88;;;;;;;;;;6125927;23;20657;-85
2022/08/24 20:02:43;;;;;;;12.05;6.63;;;;;;;;;;6123423;23;20184;-88
2022/08/24 20:05:49;;;;;;;11.50;6.40;;;;;;;;;;6125273;23;20201;-87
2022/08/24 20:08:55;;;;;;;13.68;6.13;;;;;;;;;;6123756;23;20164;-89
2022/08/24 20:12:04;;;;;;;15.73;6.50;;;;;;;;;;6141311;23;20168;-87
2022/08/24 20:15:14;;;;;;;10.93;6.55;;;;;;;;;;6122772;23;20182;-87
2022/08/24 20:18:23;;;;;;;10.73;6.95;;;;;;;;;;6122670;23;20169;-88
2022/08/24 20:21:30;;;;;;;15.07;6.55;;;;;;;;;;6122972;23;20172;-87
2022/08/24 20:24:35;;;;;;;10.85;6.60;;;;;;;;;;6120107;23;20196;-87
2022/08/24 20:27:42;;;;;;;13.57;6.47;;;;;;;;;;6122347;23;20213;-88